Time;durP1;ratioP1;P1;durP2;ratioP2;P2;SDS_P1;SDS_P2;PMS_P1;PMS_P2;Temp;Humidity;BMP_temperature;BMP_pressure;BME280_temperature;BME280_humidity;BME280_pressure;Samples;Min_cycle;Max_cycle;Signal;HPM_P1;HPM_P2
2023/09/04 00:01:40;;;;;;;4.63;1.87;;;;;;;;;;4970068;28;20266;-61
2023/09/04 00:04:06;;;;;;;4.75;1.70;;;;;;;;;;4987173;28;20035;-62
2023/09/04 00:06:31;;;;;;;5.28;1.75;;;;;;;;;;5001927;28;20149;-61
2023/09/04 00:08:57;;;;;;;4.57;1.95;;;;;;;;;;4969225;28;20038;-62
2023/09/04 00:11:24;;;;;;;5.05;1.67;;;;;;;;;;4953450;28;20432;-62
2023/09/04 00:13:49;;;;;;;3.58;1.77;;;;;;;;;;4997624;28;20012;-61
2023/09/04 00:16:15;;;;;;;5.67;2.20;;;;;;;;;;4978086;28;20037;-61
2023/09/04 00:18:40;;;;;;;4.70;2.10;;;;;;;;;;4968255;28;20014;-62
2023/09/04 00:21:05;;;;;;;3.97;1.92;;;;;;;;;;4969834;28;20608;-61
2023/09/04 00:23:30;;;;;;;7.00;2.50;;;;;;;;;;4965810;28;20033;-60
2023/09/04 00:25:56;;;;;;;5.03;2.40;;;;;;;;;;4994378;28;20105;-61
2023/09/04 00:28:22;;;;;;;5.57;2.13;;;;;;;;;;4986782;28;20265;-63
2023/09/04 00:30:48;;;;;;;7.35;2.25;;;;;;;;;;4986540;28;20042;-62
2023/09/04 00:33:13;;;;;;;8.05;2.38;;;;;;;;;;4952483;28;20084;-60
2023/09/04 00:35:38;;;;;;;7.10;2.13;;;;;;;;;;4967431;28;20027;-61
2023/09/04 00:38:04;;;;;;;3.73;2.10;;;;;;;;;;4976879;28;20143;-60
2023/09/04 00:40:29;;;;;;;3.13;1.97;;;;;;;;;;4999615;28;20045;-59
2023/09/04 00:42:54;;;;;;;7.23;2.27;;;;;;;;;;4983303;28;20056;-60
2023/09/04 00:45:19;;;;;;;5.27;2.30;;;;;;;;;;4968376;28;20435;-60
2023/09/04 00:47:45;;;;;;;4.33;2.00;;;;;;;;;;4988384;28;20319;-61
2023/09/04 00:50:11;;;;;;;4.25;2.08;;;;;;;;;;4980198;28;20828;-59
2023/09/04 00:52:36;;;;;;;5.65;2.30;;;;;;;;;;4966974;28;20054;-60
2023/09/04 00:55:03;;;;;;;4.70;1.98;;;;;;;;;;5002353;28;20560;-61
2023/09/04 00:57:28;;;;;;;5.40;2.20;;;;;;;;;;5001590;28;20109;-59
2023/09/04 00:59:54;;;;;;;3.93;2.30;;;;;;;;;;5000637;28;20130;-61
2023/09/04 01:02:19;;;;;;;4.27;2.10;;;;;;;;;;4964535;28;20266;-60
2023/09/04 01:04:44;;;;;;;5.20;2.20;;;;;;;;;;4951411;28;20285;-61
2023/09/04 01:07:09;;;;;;;4.70;2.17;;;;;;;;;;4968245;28;20081;-63
2023/09/04 01:09:35;;;;;;;4.63;2.03;;;;;;;;;;4965433;28;20376;-60
2023/09/04 01:12:06;;;;;;;4.13;2.40;;;;;;;;;;4980606;28;20384;-61
2023/09/04 01:14:31;;;;;;;5.75;2.30;;;;;;;;;;4963008;28;20051;-61
2023/09/04 01:16:57;;;;;;;4.22;2.20;;;;;;;;;;4993599;28;20080;-60
2023/09/04 01:19:22;;;;;;;3.25;2.42;;;;;;;;;;4987433;28;20562;-62
2023/09/04 01:21:47;;;;;;;3.57;2.43;;;;;;;;;;4985222;28;20038;-62
2023/09/04 01:24:12;;;;;;;5.57;2.37;;;;;;;;;;4979586;28;20330;-59
2023/09/04 01:26:40;;;;;;;5.33;2.37;;;;;;;;;;4987259;28;20334;-60
2023/09/04 01:29:14;;;;;;;4.30;2.30;;;;;;;;;;5001455;28;20407;-60
2023/09/04 01:31:42;;;;;;;5.18;2.45;;;;;;;;;;4951777;28;20038;-62
2023/09/04 01:34:11;;;;;;;5.07;2.63;;;;;;;;;;4965689;28;20030;-61
2023/09/04 01:36:36;;;;;;;6.00;2.78;;;;;;;;;;4964644;28;20039;-60
2023/09/04 01:39:02;;;;;;;5.10;2.40;;;;;;;;;;4988280;28;20515;-60
2023/09/04 01:41:27;;;;;;;3.65;2.33;;;;;;;;;;4994179;28;20038;-61
2023/09/04 01:43:53;;;;;;;5.80;2.63;;;;;;;;;;4973797;28;20050;-60
2023/09/04 01:46:19;;;;;;;4.75;2.88;;;;;;;;;;4994783;28;20276;-60
2023/09/04 01:48:44;;;;;;;4.80;2.60;;;;;;;;;;4975958;28;20173;-61
2023/09/04 01:51:09;;;;;;;4.40;2.70;;;;;;;;;;4999936;28;20129;-60
2023/09/04 01:53:34;;;;;;;4.70;2.50;;;;;;;;;;4992814;28;20360;-61
2023/09/04 01:56:00;;;;;;;5.10;2.80;;;;;;;;;;5019836;28;20308;-61
2023/09/04 01:58:27;;;;;;;5.65;2.53;;;;;;;;;;4998946;28;20278;-60
2023/09/04 02:00:52;;;;;;;4.00;3.00;;;;;;;;;;4985870;28;20042;-61
2023/09/04 02:03:17;;;;;;;6.23;3.07;;;;;;;;;;4971995;28;20049;-61
2023/09/04 02:05:42;;;;;;;4.77;2.90;;;;;;;;;;4989140;28;20271;-63
2023/09/04 02:08:08;;;;;;;6.65;3.20;;;;;;;;;;4984184;28;20042;-60
2023/09/04 02:10:33;;;;;;;3.03;2.47;;;;;;;;;;4986736;28;20060;-59
2023/09/04 02:12:59;;;;;;;5.38;2.80;;;;;;;;;;4955122;28;20299;-61
2023/09/04 02:15:24;;;;;;;3.60;2.47;;;;;;;;;;4983785;28;20130;-61
2023/09/04 02:17:51;;;;;;;4.72;3.13;;;;;;;;;;4971760;28;20096;-61
2023/09/04 02:20:16;;;;;;;5.13;2.78;;;;;;;;;;4988368;28;20061;-61
2023/09/04 02:22:42;;;;;;;4.27;3.00;;;;;;;;;;4996231;28;20058;-61
2023/09/04 02:25:07;;;;;;;3.60;2.73;;;;;;;;;;4990802;28;20334;-61
2023/09/04 02:27:33;;;;;;;3.65;2.92;;;;;;;;;;5005560;28;20274;-61
2023/09/04 02:29:58;;;;;;;3.72;2.65;;;;;;;;;;4988073;28;20149;-60
2023/09/04 02:32:23;;;;;;;3.72;2.92;;;;;;;;;;4988930;28;20124;-62
2023/09/04 02:34:49;;;;;;;4.80;2.60;;;;;;;;;;4989003;28;20041;-61
2023/09/04 02:37:14;;;;;;;4.63;2.57;;;;;;;;;;4993084;28;20289;-60
2023/09/04 02:39:39;;;;;;;3.33;2.90;;;;;;;;;;4974716;28;20292;-61
2023/09/04 02:42:04;;;;;;;3.55;2.67;;;;;;;;;;4970577;28;20278;-60
2023/09/04 02:44:30;;;;;;;3.88;2.70;;;;;;;;;;4997161;28;20121;-61
2023/09/04 02:46:55;;;;;;;3.20;2.60;;;;;;;;;;4968978;28;20086;-60
2023/09/04 02:49:20;;;;;;;3.00;2.60;;;;;;;;;;4977186;28;20795;-60
2023/09/04 02:51:45;;;;;;;3.27;2.93;;;;;;;;;;4970369;28;20961;-60
2023/09/04 02:54:10;;;;;;;3.67;2.58;;;;;;;;;;4990378;28;20856;-61
2023/09/04 02:56:36;;;;;;;3.73;2.90;;;;;;;;;;4983819;28;20030;-61
2023/09/04 02:59:01;;;;;;;3.27;2.80;;;;;;;;;;4973780;28;20790;-60
2023/09/04 03:01:26;;;;;;;5.05;2.60;;;;;;;;;;5002646;28;20644;-63
2023/09/04 03:03:51;;;;;;;3.40;2.35;;;;;;;;;;4988591;28;20121;-61
2023/09/04 03:06:17;;;;;;;4.07;2.03;;;;;;;;;;4988031;28;20084;-60
2023/09/04 03:08:42;;;;;;;3.78;2.55;;;;;;;;;;5000882;28;20357;-60
2023/09/04 03:11:10;;;;;;;3.20;2.22;;;;;;;;;;5002758;28;20057;-59
2023/09/04 03:13:38;;;;;;;3.40;2.03;;;;;;;;;;4987813;28;20030;-60
2023/09/04 03:16:05;;;;;;;2.28;2.00;;;;;;;;;;4974671;28;20034;-60
2023/09/04 03:18:30;;;;;;;2.80;2.10;;;;;;;;;;4968082;28;20035;-61
2023/09/04 03:20:56;;;;;;;3.43;2.13;;;;;;;;;;4969381;28;20100;-60
2023/09/04 03:23:21;;;;;;;4.25;2.15;;;;;;;;;;4954453;28;20273;-62
2023/09/04 03:25:46;;;;;;;4.20;1.80;;;;;;;;;;4987813;28;20050;-61
2023/09/04 03:28:11;;;;;;;3.63;2.00;;;;;;;;;;5000678;28;20038;-60
2023/09/04 03:30:37;;;;;;;4.10;2.20;;;;;;;;;;4989137;28;20125;-60
2023/09/04 03:33:02;;;;;;;2.37;2.00;;;;;;;;;;4976992;28;20794;-60
2023/09/04 03:35:27;;;;;;;4.20;2.50;;;;;;;;;;4994204;28;20281;-60
2023/09/04 03:37:52;;;;;;;2.53;2.00;;;;;;;;;;5005281;28;20087;-61
2023/09/04 03:40:22;;;;;;;2.83;2.15;;;;;;;;;;4974964;28;20305;-60
2023/09/04 03:42:47;;;;;;;3.17;1.83;;;;;;;;;;4988823;28;20140;-61
2023/09/04 03:45:12;;;;;;;2.83;1.90;;;;;;;;;;4988814;28;20038;-60
2023/09/04 03:47:38;;;;;;;4.35;2.40;;;;;;;;;;4987436;28;20030;-60
2023/09/04 03:50:03;;;;;;;3.40;2.30;;;;;;;;;;4986279;28;20148;-59
2023/09/04 03:52:28;;;;;;;3.47;2.17;;;;;;;;;;4986942;28;20266;-60
2023/09/04 03:54:53;;;;;;;4.13;2.43;;;;;;;;;;4985715;28;20027;-63
2023/09/04 03:57:19;;;;;;;3.33;2.47;;;;;;;;;;4957317;28;20288;-63
2023/09/04 03:59:44;;;;;;;3.78;2.13;;;;;;;;;;4985923;28;20280;-60
2023/09/04 04:02:09;;;;;;;3.37;2.17;;;;;;;;;;4992133;28;20030;-61
2023/09/04 04:04:34;;;;;;;3.10;2.40;;;;;;;;;;4970764;28;20850;-62
2023/09/04 04:06:59;;;;;;;3.43;2.30;;;;;;;;;;4988187;28;20662;-61
2023/09/04 04:09:25;;;;;;;3.20;2.50;;;;;;;;;;5002068;28;20679;-61
2023/09/04 04:11:50;;;;;;;3.38;2.60;;;;;;;;;;4985003;28;20686;-60
2023/09/04 04:14:15;;;;;;;4.03;2.60;;;;;;;;;;4985259;28;20380;-62
2023/09/04 04:16:40;;;;;;;3.03;2.50;;;;;;;;;;4967334;28;20352;-61
2023/09/04 04:19:06;;;;;;;4.20;2.60;;;;;;;;;;4968003;28;20282;-61
2023/09/04 04:21:31;;;;;;;3.33;2.50;;;;;;;;;;4986380;28;20512;-61
2023/09/04 04:23:56;;;;;;;4.50;2.78;;;;;;;;;;4985326;28;20304;-60
2023/09/04 04:26:22;;;;;;;4.63;2.77;;;;;;;;;;4986743;28;20034;-62
2023/09/04 04:28:47;;;;;;;2.83;2.23;;;;;;;;;;4969632;28;20763;-62
2023/09/04 04:31:12;;;;;;;3.53;2.50;;;;;;;;;;4986931;28;20301;-68
2023/09/04 04:33:37;;;;;;;3.83;2.50;;;;;;;;;;4987069;28;20276;-61
2023/09/04 04:36:03;;;;;;;2.90;2.47;;;;;;;;;;4986756;28;20284;-64
2023/09/04 04:38:29;;;;;;;3.05;2.30;;;;;;;;;;4987281;28;20038;-62
2023/09/04 04:40:55;;;;;;;4.43;2.20;;;;;;;;;;4984199;28;20034;-62
2023/09/04 04:43:20;;;;;;;2.50;2.00;;;;;;;;;;4967411;28;20031;-60
2023/09/04 04:45:45;;;;;;;3.07;2.17;;;;;;;;;;4984994;28;20050;-62
2023/09/04 04:48:11;;;;;;;4.80;2.30;;;;;;;;;;4985592;28;20297;-59
2023/09/04 04:50:36;;;;;;;3.10;2.30;;;;;;;;;;4985670;28;20446;-60
2023/09/04 04:53:01;;;;;;;3.63;2.00;;;;;;;;;;5000289;28;20842;-61
2023/09/04 04:55:33;;;;;;;2.83;2.08;;;;;;;;;;5033161;28;21059;-60
2023/09/04 04:57:58;;;;;;;2.33;1.77;;;;;;;;;;5022194;28;20503;-62
2023/09/04 05:00:23;;;;;;;3.70;2.03;;;;;;;;;;5022099;28;20783;-62
2023/09/04 05:02:49;;;;;;;3.33;2.20;;;;;;;;;;5019404;28;20037;-61
2023/09/04 05:05:15;;;;;;;2.58;2.03;;;;;;;;;;5036723;28;20116;-62
2023/09/04 05:07:41;;;;;;;3.03;2.00;;;;;;;;;;5021514;28;20044;-61
2023/09/04 05:10:07;;;;;;;3.50;1.90;;;;;;;;;;5021036;28;20029;-62
2023/09/04 05:12:32;;;;;;;2.50;1.60;;;;;;;;;;5016496;28;20410;-62
2023/09/04 05:14:57;;;;;;;2.97;1.70;;;;;;;;;;5019886;28;20119;-62
2023/09/04 05:17:22;;;;;;;3.07;1.80;;;;;;;;;;5001391;28;20042;-62
2023/09/04 05:19:48;;;;;;;2.42;2.08;;;;;;;;;;5002425;28;20792;-60
2023/09/04 05:22:13;;;;;;;2.70;1.70;;;;;;;;;;5019955;28;20040;-62
2023/09/04 05:24:38;;;;;;;2.60;1.65;;;;;;;;;;5021046;28;20289;-61
2023/09/04 05:27:03;;;;;;;2.67;1.90;;;;;;;;;;5020507;28;20755;-61
2023/09/04 05:29:29;;;;;;;2.92;2.05;;;;;;;;;;5019892;28;20285;-59
2023/09/04 05:31:56;;;;;;;2.40;1.42;;;;;;;;;;5020734;28;20029;-60
2023/09/04 05:34:21;;;;;;;2.70;1.90;;;;;;;;;;5045147;28;20421;-61
2023/09/04 05:36:46;;;;;;;3.30;2.00;;;;;;;;;;5020626;28;20195;-60
2023/09/04 05:39:11;;;;;;;3.73;2.00;;;;;;;;;;5016254;28;20277;-64
2023/09/04 05:41:37;;;;;;;2.67;1.63;;;;;;;;;;5046848;28;20038;-62
2023/09/04 05:44:02;;;;;;;2.95;1.80;;;;;;;;;;5021169;28;20103;-66
2023/09/04 05:46:28;;;;;;;4.50;1.95;;;;;;;;;;5008725;28;20038;-61
2023/09/04 05:48:53;;;;;;;1.98;1.60;;;;;;;;;;5036374;28;20069;-61
2023/09/04 05:51:18;;;;;;;4.57;2.20;;;;;;;;;;5019869;28;20124;-62
2023/09/04 05:53:43;;;;;;;2.75;1.67;;;;;;;;;;5021598;28;20312;-64
2023/09/04 05:56:09;;;;;;;4.20;1.70;;;;;;;;;;5055562;28;20030;-64
2023/09/04 05:58:41;;;;;;;2.70;1.90;;;;;;;;;;5047190;28;20280;-66
2023/09/04 06:01:07;;;;;;;3.92;2.00;;;;;;;;;;5052341;28;20083;-64
2023/09/04 06:03:32;;;;;;;3.27;1.80;;;;;;;;;;5035804;28;20521;-63
2023/09/04 06:05:57;;;;;;;2.40;1.80;;;;;;;;;;5012144;28;20336;-63
2023/09/04 06:08:22;;;;;;;3.27;2.10;;;;;;;;;;5023062;28;20285;-63
2023/09/04 06:10:48;;;;;;;4.43;1.70;;;;;;;;;;5038614;28;20288;-62
2023/09/04 06:13:13;;;;;;;4.65;2.05;;;;;;;;;;5005923;28;20026;-62
2023/09/04 06:15:38;;;;;;;2.63;1.90;;;;;;;;;;5002274;28;20518;-63
2023/09/04 06:18:03;;;;;;;2.67;2.00;;;;;;;;;;5031413;28;20273;-67
2023/09/04 06:20:29;;;;;;;3.53;1.88;;;;;;;;;;5021331;28;20277;-65
2023/09/04 06:22:54;;;;;;;2.60;2.10;;;;;;;;;;5021551;28;20096;-66
2023/09/04 06:25:19;;;;;;;4.17;2.03;;;;;;;;;;4996907;28;20284;-62
2023/09/04 06:27:44;;;;;;;2.50;1.80;;;;;;;;;;4990356;28;20785;-62
2023/09/04 06:30:10;;;;;;;7.10;2.37;;;;;;;;;;5007276;28;20026;-62
2023/09/04 06:32:35;;;;;;;3.10;2.20;;;;;;;;;;5004650;28;20808;-63
2023/09/04 06:35:00;;;;;;;3.87;1.93;;;;;;;;;;5017903;28;20073;-62
2023/09/04 06:37:25;;;;;;;2.53;1.80;;;;;;;;;;5033838;28;20887;-64
2023/09/04 06:39:51;;;;;;;2.65;1.88;;;;;;;;;;5036187;28;21143;-63
2023/09/04 06:42:16;;;;;;;2.13;1.90;;;;;;;;;;5017764;28;20054;-63
2023/09/04 06:44:42;;;;;;;2.55;1.88;;;;;;;;;;5004566;28;20068;-63
2023/09/04 06:47:07;;;;;;;2.67;1.90;;;;;;;;;;5016212;28;20490;-63
2023/09/04 06:49:32;;;;;;;2.73;2.03;;;;;;;;;;5002917;28;20022;-63
2023/09/04 06:51:58;;;;;;;2.92;1.80;;;;;;;;;;4999902;28;20285;-65
2023/09/04 06:54:24;;;;;;;3.47;2.10;;;;;;;;;;5006236;28;20148;-64
2023/09/04 06:56:49;;;;;;;3.90;2.10;;;;;;;;;;4992628;28;20162;-63
2023/09/04 06:59:14;;;;;;;6.23;2.30;;;;;;;;;;5002582;28;20117;-64
2023/09/04 07:01:40;;;;;;;7.00;2.35;;;;;;;;;;5007244;28;20844;-66
2023/09/04 07:04:05;;;;;;;4.27;2.60;;;;;;;;;;5002608;28;20108;-61
2023/09/04 07:06:30;;;;;;;2.42;2.05;;;;;;;;;;5000036;28;20285;-60
2023/09/04 07:08:55;;;;;;;4.17;2.57;;;;;;;;;;4993785;28;20585;-64
2023/09/04 07:11:20;;;;;;;4.10;2.60;;;;;;;;;;5006484;28;20352;-64
2023/09/04 07:13:46;;;;;;;3.53;2.65;;;;;;;;;;5035722;28;20100;-64
2023/09/04 07:16:11;;;;;;;3.60;2.60;;;;;;;;;;4992218;28;20479;-63
2023/09/04 07:18:38;;;;;;;3.20;2.47;;;;;;;;;;4993295;28;20522;-65
2023/09/04 07:21:03;;;;;;;3.00;2.40;;;;;;;;;;4992775;28;20035;-67
2023/09/04 07:23:28;;;;;;;3.90;2.73;;;;;;;;;;5028303;28;20107;-65
2023/09/04 07:25:57;;;;;;;3.60;2.60;;;;;;;;;;5003801;28;20273;-64
2023/09/04 07:28:22;;;;;;;4.47;2.55;;;;;;;;;;5026588;28;20466;-66
2023/09/04 07:30:47;;;;;;;2.80;2.10;;;;;;;;;;5006419;28;20022;-69
2023/09/04 07:33:13;;;;;;;2.80;2.17;;;;;;;;;;5005466;28;20479;-66
2023/09/04 07:35:40;;;;;;;2.60;2.20;;;;;;;;;;5003845;28;20044;-66
2023/09/04 07:38:05;;;;;;;3.90;2.83;;;;;;;;;;5006071;28;20038;-62
2023/09/04 07:40:31;;;;;;;4.65;2.35;;;;;;;;;;5037934;28;20060;-62
2023/09/04 07:42:56;;;;;;;2.87;2.40;;;;;;;;;;5019720;28;20045;-62
2023/09/04 07:45:23;;;;;;;3.57;2.40;;;;;;;;;;5005340;28;20418;-62
2023/09/04 07:47:49;;;;;;;3.22;2.40;;;;;;;;;;4999913;28;20464;-63
2023/09/04 07:50:14;;;;;;;3.17;2.60;;;;;;;;;;5006330;28;20034;-65
2023/09/04 07:52:39;;;;;;;4.03;2.30;;;;;;;;;;5005009;28;20301;-65
2023/09/04 07:55:07;;;;;;;3.77;2.80;;;;;;;;;;5037015;28;20518;-62
2023/09/04 07:57:33;;;;;;;5.10;2.40;;;;;;;;;;5006008;28;20324;-63
2023/09/04 07:59:59;;;;;;;3.40;2.90;;;;;;;;;;5020772;28;20053;-64
2023/09/04 08:02:24;;;;;;;3.55;2.58;;;;;;;;;;5006148;28;20049;-64
2023/09/04 08:04:50;;;;;;;4.30;2.70;;;;;;;;;;5005314;28;20037;-65
2023/09/04 08:07:15;;;;;;;5.03;2.80;;;;;;;;;;4995429;28;20324;-64
2023/09/04 08:09:40;;;;;;;6.03;2.40;;;;;;;;;;5032091;28;20062;-63
2023/09/04 08:12:05;;;;;;;4.13;2.77;;;;;;;;;;4999921;28;20068;-60
2023/09/04 08:14:35;;;;;;;3.53;2.65;;;;;;;;;;5023123;28;20054;-60
2023/09/04 08:17:01;;;;;;;4.25;2.60;;;;;;;;;;4998991;28;20133;-60
2023/09/04 08:19:26;;;;;;;3.95;2.83;;;;;;;;;;5020774;28;20125;-61
2023/09/04 08:21:52;;;;;;;4.30;2.70;;;;;;;;;;5004131;28;20033;-60
2023/09/04 08:24:17;;;;;;;4.17;2.87;;;;;;;;;;5004809;28;20285;-58
2023/09/04 08:26:42;;;;;;;3.93;2.90;;;;;;;;;;4998630;28;20045;-59
2023/09/04 08:29:07;;;;;;;3.80;2.77;;;;;;;;;;4997992;28;20033;-59
2023/09/04 08:31:32;;;;;;;4.70;3.27;;;;;;;;;;5005241;28;20273;-60
2023/09/04 08:33:58;;;;;;;4.00;2.90;;;;;;;;;;5004727;28;20725;-60
2023/09/04 08:36:23;;;;;;;4.13;2.90;;;;;;;;;;5005003;28;20284;-59
2023/09/04 08:38:48;;;;;;;4.63;3.00;;;;;;;;;;4992254;28;20053;-59
2023/09/04 08:41:15;;;;;;;4.60;2.83;;;;;;;;;;4987082;28;20050;-60
2023/09/04 08:43:40;;;;;;;3.13;2.60;;;;;;;;;;5002269;28;20125;-60
2023/09/04 08:46:06;;;;;;;3.63;2.90;;;;;;;;;;5002013;28;20447;-60
2023/09/04 08:48:31;;;;;;;4.82;2.95;;;;;;;;;;5005365;28;20042;-59
2023/09/04 08:50:57;;;;;;;3.88;2.90;;;;;;;;;;5004324;28;20052;-60
2023/09/04 08:53:22;;;;;;;5.78;2.80;;;;;;;;;;5035521;28;20097;-61
2023/09/04 08:55:48;;;;;;;5.83;2.83;;;;;;;;;;5005205;28;20447;-61
2023/09/04 08:58:13;;;;;;;5.85;2.70;;;;;;;;;;5005045;28;20621;-59
2023/09/04 09:00:38;;;;;;;5.33;3.07;;;;;;;;;;5036568;28;20401;-60
2023/09/04 09:03:03;;;;;;;5.27;3.17;;;;;;;;;;5031584;28;20490;-60
2023/09/04 09:05:29;;;;;;;4.55;2.72;;;;;;;;;;4996426;28;20589;-61
2023/09/04 09:07:54;;;;;;;5.55;3.17;;;;;;;;;;5004765;28;20433;-61
2023/09/04 09:10:19;;;;;;;5.18;2.67;;;;;;;;;;5015680;28;20019;-59
2023/09/04 09:12:45;;;;;;;4.65;2.95;;;;;;;;;;5019744;28;20014;-59
2023/09/04 09:15:10;;;;;;;6.30;3.15;;;;;;;;;;4992982;28;20038;-59
2023/09/04 09:17:47;;;;;;;4.03;3.40;;;;;;;;;;4994869;28;20414;-60
2023/09/04 09:20:12;;;;;;;3.90;2.83;;;;;;;;;;4985489;28;20415;-61
2023/09/04 09:22:38;;;;;;;5.00;3.43;;;;;;;;;;4988385;28;20022;-61
2023/09/04 09:25:03;;;;;;;7.03;3.60;;;;;;;;;;5021863;28;20247;-59
2023/09/04 09:27:29;;;;;;;5.82;2.97;;;;;;;;;;5003780;28;20796;-61
2023/09/04 09:29:55;;;;;;;4.20;2.80;;;;;;;;;;5007899;28;20025;-61
2023/09/04 09:32:20;;;;;;;4.90;3.50;;;;;;;;;;5025580;28;20080;-72
2023/09/04 09:34:49;;;;;;;4.53;3.37;;;;;;;;;;4989137;28;20569;-69
2023/09/04 09:37:14;;;;;;;4.87;3.23;;;;;;;;;;5018659;28;20034;-67
2023/09/04 09:39:39;;;;;;;6.10;3.27;;;;;;;;;;5022176;28;20531;-69
2023/09/04 09:42:05;;;;;;;4.13;3.00;;;;;;;;;;5025744;28;20257;-68
2023/09/04 09:44:31;;;;;;;5.95;3.38;;;;;;;;;;4995970;28;20277;-70
2023/09/04 09:46:56;;;;;;;4.82;3.38;;;;;;;;;;5018740;28;20038;-70
2023/09/04 09:49:21;;;;;;;4.07;3.27;;;;;;;;;;5024139;28;20192;-70
2023/09/04 09:51:47;;;;;;;4.70;3.87;;;;;;;;;;4992924;28;20277;-68
2023/09/04 09:54:13;;;;;;;4.00;3.38;;;;;;;;;;5009280;28;20293;-70
2023/09/04 09:56:38;;;;;;;5.35;4.13;;;;;;;;;;5017081;28;20034;-70
2023/09/04 09:59:03;;;;;;;6.80;4.13;;;;;;;;;;5014638;28;20053;-67
2023/09/04 10:01:31;;;;;;;5.27;3.87;;;;;;;;;;5018538;28;20101;-67
2023/09/04 10:03:57;;;;;;;5.03;3.63;;;;;;;;;;5012910;28;20323;-68
2023/09/04 10:06:23;;;;;;;5.27;3.93;;;;;;;;;;5024810;28;20050;-68
2023/09/04 10:08:49;;;;;;;5.82;3.90;;;;;;;;;;5016437;28;20716;-69
2023/09/04 10:11:15;;;;;;;4.85;3.88;;;;;;;;;;4994224;28;20516;-69
2023/09/04 10:13:50;;;;;;;5.10;3.70;;;;;;;;;;5024187;28;20038;-60
2023/09/04 10:16:16;;;;;;;5.95;3.92;;;;;;;;;;5020767;28;20042;-63
2023/09/04 10:18:41;;;;;;;5.65;3.60;;;;;;;;;;5018152;28;20045;-63
2023/09/04 10:21:06;;;;;;;5.70;4.05;;;;;;;;;;5016658;28;20244;-62
2023/09/04 10:23:32;;;;;;;4.97;4.00;;;;;;;;;;4985756;28;20030;-65
2023/09/04 10:26:03;;;;;;;4.95;3.83;;;;;;;;;;5017377;28;21892;-62
2023/09/04 10:28:33;;;;;;;6.28;4.63;;;;;;;;;;5018175;28;20042;-61
2023/09/04 10:30:58;;;;;;;5.40;3.80;;;;;;;;;;4985592;28;20060;-61
2023/09/04 10:33:23;;;;;;;5.28;4.45;;;;;;;;;;4986325;28;20042;-60
2023/09/04 10:35:49;;;;;;;6.15;4.75;;;;;;;;;;5018002;28;20482;-62
2023/09/04 10:38:14;;;;;;;4.90;4.18;;;;;;;;;;5006440;28;20034;-63
2023/09/04 10:40:39;;;;;;;5.60;4.47;;;;;;;;;;5017111;28;20025;-64
2023/09/04 10:43:05;;;;;;;7.25;4.78;;;;;;;;;;5016178;28;20715;-65
2023/09/04 10:45:31;;;;;;;6.75;4.10;;;;;;;;;;5017463;28;20140;-64
2023/09/04 10:47:56;;;;;;;6.22;4.53;;;;;;;;;;5004501;28;20030;-61
2023/09/04 10:50:28;;;;;;;5.35;4.30;;;;;;;;;;4985601;28;20497;-63
2023/09/04 10:52:53;;;;;;;5.03;3.95;;;;;;;;;;4989283;28;20491;-62
2023/09/04 10:55:19;;;;;;;5.18;4.00;;;;;;;;;;4985840;28;20073;-62
2023/09/04 10:58:14;;;;;;;5.60;4.30;;;;;;;;;;4991279;28;20030;-63
2023/09/04 11:00:39;;;;;;;6.72;4.40;;;;;;;;;;4990778;28;20046;-63
2023/09/04 11:03:17;;;;;;;5.57;4.57;;;;;;;;;;5016870;28;20029;-62
2023/09/04 11:06:01;;;;;;;5.47;4.28;;;;;;;;;;5016093;28;20046;-63
2023/09/04 11:08:27;;;;;;;7.15;4.88;;;;;;;;;;5016396;28;20038;-64
2023/09/04 11:10:58;;;;;;;6.20;4.72;;;;;;;;;;5017353;28;20049;-63
2023/09/04 11:13:23;;;;;;;7.63;4.47;;;;;;;;;;5007939;28;20118;-62
2023/09/04 11:15:54;;;;;;;5.67;4.30;;;;;;;;;;4998831;28;20558;-61
2023/09/04 11:18:19;;;;;;;5.30;3.78;;;;;;;;;;4992397;28;20517;-63
2023/09/04 11:20:45;;;;;;;6.70;4.50;;;;;;;;;;5022349;28;20175;-66
2023/09/04 11:23:10;;;;;;;6.28;4.03;;;;;;;;;;5012667;28;20034;-64
2023/09/04 11:25:35;;;;;;;4.95;3.78;;;;;;;;;;4994778;28;20049;-64
2023/09/04 11:28:02;;;;;;;5.57;3.80;;;;;;;;;;4997513;28;20470;-62
2023/09/04 11:30:28;;;;;;;5.38;3.58;;;;;;;;;;5006626;28;20184;-63
2023/09/04 11:32:54;;;;;;;4.78;3.13;;;;;;;;;;5015637;28;20048;-63
2023/09/04 11:35:19;;;;;;;5.57;3.45;;;;;;;;;;5023223;28;20490;-62
2023/09/04 11:37:44;;;;;;;5.50;3.60;;;;;;;;;;4994178;28;20027;-63
2023/09/04 11:40:10;;;;;;;5.40;3.80;;;;;;;;;;4998995;28;20025;-61
2023/09/04 11:42:36;;;;;;;5.10;4.07;;;;;;;;;;5000159;28;20291;-61
2023/09/04 11:45:02;;;;;;;4.75;3.67;;;;;;;;;;5030181;28;20636;-62
2023/09/04 11:47:28;;;;;;;5.03;3.63;;;;;;;;;;4999607;28;20037;-63
2023/09/04 11:49:53;;;;;;;4.97;3.35;;;;;;;;;;4988520;28;20511;-60
2023/09/04 11:52:28;;;;;;;4.67;3.70;;;;;;;;;;5025255;28;20025;-63
2023/09/04 11:54:53;;;;;;;4.43;3.50;;;;;;;;;;5033911;28;20589;-59
2023/09/04 11:57:18;;;;;;;4.82;3.47;;;;;;;;;;5034797;28;20117;-61
2023/09/04 11:59:43;;;;;;;5.17;3.27;;;;;;;;;;4991143;28;20045;-63
2023/09/04 12:02:09;;;;;;;5.00;3.40;;;;;;;;;;4994771;28;20033;-63
2023/09/04 12:04:34;;;;;;;4.80;3.20;;;;;;;;;;4998183;28;20030;-63
2023/09/04 12:07:00;;;;;;;4.82;2.92;;;;;;;;;;5031718;28;20068;-64
2023/09/04 12:09:25;;;;;;;5.05;2.90;;;;;;;;;;4999297;28;20483;-63
2023/09/04 12:11:51;;;;;;;4.72;2.70;;;;;;;;;;5018820;28;20022;-62
2023/09/04 12:14:16;;;;;;;4.13;2.40;;;;;;;;;;5013769;28;20034;-63
2023/09/04 12:16:44;;;;;;;4.30;2.53;;;;;;;;;;5003603;28;20304;-62
2023/09/04 12:19:09;;;;;;;3.58;2.55;;;;;;;;;;5019350;28;20780;-63
2023/09/04 12:21:34;;;;;;;3.70;2.33;;;;;;;;;;5016696;28;20029;-65
2023/09/04 12:24:00;;;;;;;4.20;2.65;;;;;;;;;;5016971;28;20265;-65
2023/09/04 12:26:25;;;;;;;3.63;2.07;;;;;;;;;;5024735;28;20037;-65
2023/09/04 12:28:50;;;;;;;3.10;2.03;;;;;;;;;;5017809;28;20478;-64
2023/09/04 12:31:17;;;;;;;2.72;1.70;;;;;;;;;;5012243;28;20034;-65
2023/09/04 12:33:43;;;;;;;4.53;1.80;;;;;;;;;;4993492;28;20081;-64
2023/09/04 12:36:13;;;;;;;2.33;1.60;;;;;;;;;;4993027;28;20033;-64
2023/09/04 12:38:39;;;;;;;3.60;2.03;;;;;;;;;;5013956;28;20033;-64
2023/09/04 12:41:04;;;;;;;2.60;1.92;;;;;;;;;;4989470;28;20037;-65
2023/09/04 12:43:29;;;;;;;2.88;1.60;;;;;;;;;;5025504;28;20117;-65
2023/09/04 12:45:55;;;;;;;3.47;1.60;;;;;;;;;;4992042;28;20090;-65
2023/09/04 12:48:21;;;;;;;2.80;2.07;;;;;;;;;;5002032;28;20034;-64
2023/09/04 12:50:48;;;;;;;4.72;2.08;;;;;;;;;;5027413;28;20034;-65
2023/09/04 12:53:13;;;;;;;3.50;2.50;;;;;;;;;;5014958;28;20379;-65
2023/09/04 12:55:38;;;;;;;3.47;1.95;;;;;;;;;;5029974;28;20069;-64
2023/09/04 12:58:07;;;;;;;2.40;1.50;;;;;;;;;;4998632;28;20030;-66
2023/09/04 13:00:34;;;;;;;3.10;1.80;;;;;;;;;;5013106;28;20426;-65
2023/09/04 13:02:59;;;;;;;2.55;1.70;;;;;;;;;;5027010;28;20034;-65
2023/09/04 13:05:24;;;;;;;2.10;1.53;;;;;;;;;;4995118;28;20597;-65
2023/09/04 13:07:50;;;;;;;2.45;1.42;;;;;;;;;;5028242;28;20709;-63
2023/09/04 13:10:15;;;;;;;2.50;1.70;;;;;;;;;;4996676;28;20046;-67
2023/09/04 13:12:40;;;;;;;3.92;2.33;;;;;;;;;;5018786;28;20859;-66
2023/09/04 13:15:06;;;;;;;3.53;1.83;;;;;;;;;;4994171;28;20180;-65
2023/09/04 13:17:31;;;;;;;3.80;2.05;;;;;;;;;;5030368;28;20119;-65
2023/09/04 13:19:56;;;;;;;3.40;2.00;;;;;;;;;;4998642;28;20039;-63
2023/09/04 13:22:21;;;;;;;2.80;1.90;;;;;;;;;;4983526;28;20056;-62
2023/09/04 13:24:47;;;;;;;3.63;2.22;;;;;;;;;;4998043;28;20529;-65
2023/09/04 13:27:13;;;;;;;4.17;2.17;;;;;;;;;;4998324;28;20041;-64
2023/09/04 13:29:38;;;;;;;3.63;2.08;;;;;;;;;;4988089;28;20661;-67
2023/09/04 13:32:03;;;;;;;3.67;2.13;;;;;;;;;;4988923;28;20042;-63
2023/09/04 13:34:29;;;;;;;3.85;1.67;;;;;;;;;;4987705;28;20335;-63
2023/09/04 13:36:54;;;;;;;3.17;2.17;;;;;;;;;;4988036;28;20035;-62
2023/09/04 13:39:19;;;;;;;6.13;2.20;;;;;;;;;;5004359;28;20087;-63
2023/09/04 13:41:44;;;;;;;3.63;1.60;;;;;;;;;;5018863;28;20297;-68
2023/09/04 13:44:10;;;;;;;3.23;1.80;;;;;;;;;;5018863;28;20312;-70
2023/09/04 13:46:35;;;;;;;2.25;1.70;;;;;;;;;;5007469;28;20382;-67
2023/09/04 13:49:00;;;;;;;3.70;1.80;;;;;;;;;;4987773;28;20038;-67
2023/09/04 13:51:25;;;;;;;5.03;1.90;;;;;;;;;;5002555;28;20070;-66
2023/09/04 13:53:51;;;;;;;2.93;1.80;;;;;;;;;;4988780;28;20736;-64
2023/09/04 13:56:16;;;;;;;1.67;1.40;;;;;;;;;;4989584;28;20559;-66
2023/09/04 13:58:41;;;;;;;2.73;1.60;;;;;;;;;;4987297;28;20041;-63
2023/09/04 14:01:12;;;;;;;4.32;2.03;;;;;;;;;;5018214;28;20423;-65
2023/09/04 14:03:37;;;;;;;3.30;2.13;;;;;;;;;;4987268;28;20030;-67
2023/09/04 14:06:02;;;;;;;2.30;1.43;;;;;;;;;;4989018;28;20387;-63
2023/09/04 14:08:28;;;;;;;2.78;1.50;;;;;;;;;;4987081;28;20368;-65
2023/09/04 14:10:53;;;;;;;2.97;1.70;;;;;;;;;;5019417;28;20461;-64
2023/09/04 14:13:18;;;;;;;2.30;1.57;;;;;;;;;;4987214;28;20289;-63
2023/09/04 14:15:43;;;;;;;2.30;1.60;;;;;;;;;;5018282;28;20388;-64
2023/09/04 14:18:09;;;;;;;2.92;1.63;;;;;;;;;;4985026;28;20044;-64
2023/09/04 14:20:34;;;;;;;2.20;1.57;;;;;;;;;;4987699;28;20440;-63
2023/09/04 14:22:59;;;;;;;2.80;1.37;;;;;;;;;;4988185;28;20132;-64
2023/09/04 14:25:24;;;;;;;2.30;1.55;;;;;;;;;;4988966;28;20423;-62
2023/09/04 14:27:50;;;;;;;3.40;1.43;;;;;;;;;;4989335;28;20231;-68
2023/09/04 14:30:15;;;;;;;2.47;1.50;;;;;;;;;;5018833;28;20364;-68
2023/09/04 14:32:40;;;;;;;2.60;1.45;;;;;;;;;;4988137;28;20035;-65
2023/09/04 14:35:06;;;;;;;3.80;1.40;;;;;;;;;;4988619;28;20395;-65